createdAt,value
2018-08-12T00:00:23.138Z,0.80
2018-08-12T00:02:52.411Z,1.00
2018-08-12T00:05:21.576Z,0.77
2018-08-12T00:07:50.711Z,1.00
2018-08-12T00:10:19.701Z,0.80
2018-08-12T00:12:48.621Z,1.00
2018-08-12T00:15:19.943Z,0.60
2018-08-12T00:17:48.889Z,0.73
2018-08-12T00:20:19.427Z,1.00
2018-08-12T00:22:48.917Z,1.00
2018-08-12T00:25:19.596Z,0.90
2018-08-12T00:27:48.483Z,1.10
2018-08-12T00:30:18.506Z,0.83
2018-08-12T00:32:47.562Z,0.80
2018-08-12T00:35:17.535Z,0.90
2018-08-12T00:37:46.533Z,1.00
2018-08-12T00:40:16.436Z,0.83
2018-08-12T00:42:46.016Z,1.30
2018-08-12T00:45:17.026Z,0.80
2018-08-12T00:47:46.335Z,0.80
2018-08-12T00:50:16.121Z,0.97
2018-08-12T00:52:45.414Z,0.77
2018-08-12T00:55:15.615Z,1.07
2018-08-12T00:57:45.334Z,1.10
2018-08-12T01:03:08.167Z,0.83
2018-08-12T01:05:36.996Z,0.90
2018-08-12T01:08:05.924Z,0.90
2018-08-12T01:10:34.897Z,1.20
2018-08-12T01:13:03.784Z,1.17
2018-08-12T01:15:32.654Z,1.20
2018-08-12T01:18:01.779Z,0.80
2018-08-12T01:20:30.710Z,1.17
2018-08-12T01:22:59.581Z,0.90
2018-08-12T01:25:28.688Z,1.10
2018-08-12T01:27:57.592Z,1.10
2018-08-12T01:30:26.558Z,0.80
2018-08-12T01:32:55.591Z,1.00
2018-08-12T01:35:24.421Z,1.07
2018-08-12T01:37:53.368Z,1.17
2018-08-12T01:40:22.321Z,1.20
2018-08-12T01:42:51.180Z,1.10
2018-08-12T01:45:21.064Z,0.93
2018-08-12T01:47:50.661Z,1.10
2018-08-12T01:50:20.373Z,1.00
2018-08-12T01:52:49.247Z,1.00
2018-08-12T01:55:18.309Z,0.80
2018-08-12T01:57:47.158Z,0.97
2018-08-12T02:00:18.647Z,1.20
2018-08-12T02:02:48.105Z,1.40
2018-08-12T02:05:17.580Z,0.87
2018-08-12T02:07:46.535Z,1.10
2018-08-12T02:10:15.509Z,1.00
2018-08-12T02:12:44.467Z,0.90
2018-08-12T02:15:13.654Z,0.97
2018-08-12T02:17:42.918Z,1.00
2018-08-12T02:20:12.915Z,1.20
2018-08-12T02:22:42.538Z,1.27
2018-08-12T02:25:12.398Z,1.40
2018-08-12T02:27:41.775Z,1.10
2018-08-12T02:30:12.122Z,0.90
2018-08-12T02:32:41.781Z,1.03
2018-08-12T02:35:11.039Z,0.90
2018-08-12T02:37:40.368Z,1.20
2018-08-12T02:40:10.041Z,1.03
2018-08-12T02:42:39.096Z,0.90
2018-08-12T02:45:10.404Z,1.03
2018-08-12T02:47:39.426Z,1.37
2018-08-12T02:50:08.297Z,1.27
2018-08-12T02:52:37.822Z,1.30
2018-08-12T02:55:08.358Z,1.17
2018-08-12T02:57:37.321Z,1.00
2018-08-12T03:00:07.068Z,1.03
2018-08-12T03:02:35.971Z,0.80
2018-08-12T03:05:05.150Z,1.10
2018-08-12T03:07:34.521Z,1.10
2018-08-12T03:10:03.529Z,0.93
2018-08-12T03:12:32.516Z,1.00
2018-08-12T03:15:01.495Z,1.10
2018-08-12T03:17:30.461Z,0.97
2018-08-12T03:19:59.316Z,0.97
2018-08-12T03:22:28.213Z,1.23
2018-08-12T03:24:57.236Z,1.27
2018-08-12T03:27:26.203Z,1.03
2018-08-12T03:29:55.226Z,1.00
2018-08-12T03:32:24.094Z,1.00
2018-08-12T03:34:53.004Z,1.13
2018-08-12T03:37:22.729Z,1.03
2018-08-12T03:39:51.706Z,1.20
2018-08-12T03:42:20.566Z,0.90
2018-08-12T03:44:49.477Z,1.10
2018-08-12T03:47:18.382Z,0.90
2018-08-12T03:49:47.226Z,1.13
2018-08-12T03:52:16.178Z,1.00
2018-08-12T03:54:45.097Z,0.93
2018-08-12T03:57:13.943Z,1.10
2018-08-12T03:59:42.839Z,1.13
2018-08-12T04:02:11.832Z,0.90
2018-08-12T04:04:40.665Z,1.00
2018-08-12T04:07:09.561Z,1.20
2018-08-12T04:09:38.520Z,1.10
2018-08-12T04:12:07.389Z,1.00
2018-08-12T04:14:36.464Z,1.10
2018-08-12T04:17:05.387Z,1.20
2018-08-12T04:19:34.270Z,1.10
2018-08-12T04:22:03.148Z,1.20
2018-08-12T04:24:32.099Z,1.23
2018-08-12T04:27:00.939Z,1.20
2018-08-12T04:29:29.841Z,1.10
2018-08-12T04:31:58.766Z,1.00
2018-08-12T04:34:27.680Z,1.10
2018-08-12T04:36:56.564Z,1.20
2018-08-12T04:39:25.529Z,0.80
2018-08-12T04:41:54.846Z,1.17
2018-08-12T04:44:23.802Z,1.10
2018-08-12T04:46:52.689Z,1.30
2018-08-12T04:49:21.637Z,1.10
2018-08-12T04:51:51.007Z,0.90
2018-08-12T04:54:19.979Z,1.10
2018-08-12T04:56:48.846Z,1.10
2018-08-12T04:59:17.767Z,1.10
2018-08-12T05:01:46.606Z,1.20
2018-08-12T05:04:15.498Z,1.00
2018-08-12T05:06:44.423Z,1.20
2018-08-12T05:09:13.269Z,0.90
2018-08-12T05:11:42.155Z,1.20
2018-08-12T05:14:11.136Z,1.20
2018-08-12T05:16:40.060Z,1.13
2018-08-12T05:19:08.882Z,1.10
2018-08-12T05:21:37.814Z,1.10
2018-08-12T05:24:06.905Z,1.50
2018-08-12T05:26:35.947Z,1.33
2018-08-12T05:29:04.908Z,1.30
2018-08-12T05:31:33.887Z,1.00
2018-08-12T05:34:02.765Z,1.07
2018-08-12T05:36:31.955Z,1.30
2018-08-12T05:39:00.933Z,1.60
2018-08-12T05:41:29.857Z,1.47
2018-08-12T05:43:58.782Z,1.60
2018-08-12T05:46:27.736Z,1.00
2018-08-12T05:48:56.594Z,1.30
2018-08-12T05:51:32.334Z,1.33
2018-08-12T05:54:01.310Z,1.17
2018-08-12T05:56:30.162Z,1.17
2018-08-12T05:58:59.090Z,1.20
2018-08-12T06:01:28.836Z,1.17
2018-08-12T06:03:57.823Z,1.40
2018-08-12T06:06:26.737Z,1.40
2018-08-12T06:08:55.739Z,1.77
2018-08-12T06:11:24.580Z,1.43
2018-08-12T06:13:53.584Z,1.40
2018-08-12T06:16:22.463Z,1.70
2018-08-12T06:18:51.409Z,1.50
2018-08-12T06:21:20.277Z,1.40
2018-08-12T06:23:49.121Z,1.53
2018-08-12T06:26:18.085Z,1.40
2018-08-12T06:28:47.119Z,1.83
2018-08-12T06:31:15.971Z,1.70
2018-08-12T06:33:45.143Z,1.63
2018-08-12T06:36:14.038Z,1.70
2018-08-12T06:38:43.442Z,1.70
2018-08-12T06:41:12.735Z,1.90
2018-08-12T06:43:41.566Z,1.90
2018-08-12T06:46:10.535Z,1.87
2018-08-12T06:48:39.436Z,1.30
2018-08-12T06:51:08.414Z,1.33
2018-08-12T06:53:37.321Z,1.60
2018-08-12T06:56:06.306Z,1.50
2018-08-12T06:58:35.204Z,1.70
2018-08-12T07:01:04.183Z,1.40
2018-08-12T07:03:33.155Z,1.70
2018-08-12T07:06:02.029Z,1.33
2018-08-12T07:08:31.021Z,1.40
2018-08-12T07:10:59.921Z,1.47
2018-08-12T07:13:28.822Z,1.50
2018-08-12T07:15:57.833Z,1.50
2018-08-12T07:18:26.661Z,1.30
2018-08-12T07:20:55.576Z,1.20
2018-08-12T07:23:24.617Z,1.73
2018-08-12T07:25:53.473Z,1.13
2018-08-12T07:28:22.376Z,1.40
2018-08-12T07:30:51.281Z,1.20
2018-08-12T07:33:20.158Z,1.07
2018-08-12T07:35:49.084Z,0.80
2018-08-12T07:38:18.038Z,1.37
2018-08-12T07:40:47.127Z,1.30
2018-08-12T07:43:16.033Z,1.20
2018-08-12T07:45:44.894Z,1.07
2018-08-12T07:48:13.800Z,1.17
2018-08-12T07:50:42.713Z,1.23
2018-08-12T07:53:11.523Z,1.13
2018-08-12T07:55:40.548Z,1.00
2018-08-12T07:58:09.387Z,1.23
2018-08-12T08:00:38.280Z,1.20
2018-08-12T08:03:07.223Z,0.90
2018-08-12T08:05:36.149Z,1.10
2018-08-12T08:08:05.123Z,1.13
2018-08-12T08:10:34.103Z,1.13
2018-08-12T08:13:03.133Z,0.90
2018-08-12T08:15:32.025Z,1.00
2018-08-12T08:18:00.942Z,1.07
2018-08-12T08:20:29.952Z,1.37
2018-08-12T08:22:58.896Z,1.25
2018-08-12T08:25:27.873Z,1.30
2018-08-12T08:27:56.701Z,1.03
2018-08-12T08:30:25.713Z,1.00
2018-08-12T08:32:54.620Z,1.45
2018-08-12T08:35:23.561Z,1.20
2018-08-12T08:37:52.481Z,1.55
2018-08-12T08:40:21.377Z,1.80
2018-08-12T08:42:50.343Z,1.82
2018-08-12T08:45:20.919Z,2.17
2018-08-12T08:47:52.208Z,1.75
2018-08-12T08:50:21.990Z,1.92
2018-08-12T08:52:50.891Z,1.40
2018-08-12T08:55:20.104Z,1.67
2018-08-12T08:57:49.027Z,1.45
2018-08-12T09:00:19.578Z,1.35
2018-08-12T09:02:49.978Z,1.72
2018-08-12T09:05:19.274Z,1.35
2018-08-12T09:07:48.441Z,1.60
2018-08-12T09:10:18.311Z,1.50
2018-08-12T09:12:47.266Z,1.72
2018-08-12T09:15:17.811Z,1.85
2018-08-12T09:17:47.439Z,1.95
2018-08-12T09:20:18.866Z,1.35
2018-08-12T09:22:47.884Z,1.45
2018-08-12T09:25:17.101Z,1.77
2018-08-12T09:27:45.981Z,1.50
2018-08-12T09:30:17.017Z,2.08
2018-08-12T09:32:46.361Z,1.60
2018-08-12T09:35:15.215Z,1.95
2018-08-12T09:37:44.211Z,1.55
2018-08-12T09:40:14.456Z,1.40
2018-08-12T09:42:44.310Z,1.40
2018-08-12T09:45:16.108Z,1.47
2018-08-12T09:47:45.097Z,1.20
2018-08-12T09:50:15.424Z,1.52
2018-08-12T09:52:44.596Z,1.22
2018-08-12T09:55:14.185Z,1.60
2018-08-12T09:57:43.170Z,1.30
2018-08-12T10:00:19.904Z,1.40
2018-08-12T10:02:49.505Z,1.02
2018-08-12T10:05:18.567Z,1.40
2018-08-12T10:07:47.685Z,1.90
2018-08-12T10:10:17.041Z,1.40
2018-08-12T10:12:46.020Z,1.10
2018-08-12T10:15:15.723Z,1.25
2018-08-12T10:17:46.619Z,1.00
2018-08-12T10:20:15.495Z,1.20
2018-08-12T10:22:44.405Z,1.45
2018-08-12T10:25:13.355Z,1.20
2018-08-12T10:27:42.214Z,1.37
2018-08-12T10:30:12.720Z,1.32
2018-08-12T10:32:41.552Z,1.30
2018-08-12T10:35:11.936Z,1.30
2018-08-12T10:37:41.358Z,1.27
2018-08-12T10:40:13.362Z,1.22
2018-08-12T10:42:42.332Z,1.15
2018-08-12T10:45:11.952Z,1.27
2018-08-12T10:47:41.070Z,1.15
2018-08-12T10:50:12.657Z,1.50
2018-08-12T10:52:42.674Z,1.17
2018-08-12T10:55:12.606Z,0.93
2018-08-12T10:57:41.623Z,1.20
2018-08-12T11:00:18.298Z,1.02
2018-08-12T11:02:47.808Z,1.30
2018-08-12T11:05:17.236Z,1.15
2018-08-12T11:07:48.190Z,1.27
2018-08-12T11:10:17.099Z,1.42
2018-08-12T11:12:46.105Z,1.00
2018-08-12T11:15:15.379Z,2.12
2018-08-12T11:17:44.552Z,1.17
2018-08-12T11:20:13.382Z,1.82
2018-08-12T11:22:42.246Z,1.60
2018-08-12T11:25:16.627Z,1.20
2018-08-12T11:27:46.391Z,1.30
2018-08-12T11:30:17.126Z,1.00
2018-08-12T11:32:46.025Z,1.05
2018-08-12T11:35:16.325Z,1.00
2018-08-12T11:37:45.705Z,1.27
2018-08-12T11:40:15.489Z,1.20
2018-08-12T11:42:44.447Z,1.15
2018-08-12T11:45:18.192Z,1.00
2018-08-12T11:47:47.994Z,1.40
2018-08-12T11:50:17.510Z,1.10
2018-08-12T11:52:47.046Z,1.22
2018-08-12T11:55:18.315Z,1.20
2018-08-12T11:57:55.400Z,1.05
2018-08-12T12:00:24.312Z,0.95
2018-08-12T12:02:55.656Z,0.90
2018-08-12T12:05:25.203Z,1.05
2018-08-12T12:07:54.079Z,1.20
2018-08-12T12:10:23.591Z,1.10
2018-08-12T12:12:53.964Z,0.80
2018-08-12T12:15:22.879Z,0.93
2018-08-12T12:17:51.929Z,1.00
2018-08-12T12:20:21.025Z,1.02
2018-08-12T12:22:49.832Z,1.00
2018-08-12T12:25:20.169Z,1.20
2018-08-12T12:27:49.135Z,1.10
2018-08-12T12:30:19.568Z,0.95
2018-08-12T12:32:49.607Z,0.85
2018-08-12T12:35:18.616Z,0.93
2018-08-12T12:37:47.666Z,1.00
2018-08-12T12:40:17.801Z,0.78
2018-08-12T12:42:47.200Z,0.90
2018-08-12T12:45:16.514Z,0.90
2018-08-12T12:47:45.716Z,1.05
2018-08-12T12:50:16.712Z,1.05
2018-08-12T12:52:46.271Z,0.90
2018-08-12T12:55:15.357Z,0.70
2018-08-12T12:57:44.476Z,1.00
2018-08-12T13:00:14.950Z,0.93
2018-08-12T13:02:44.126Z,0.80
2018-08-12T13:05:14.653Z,1.10
2018-08-12T13:07:47.037Z,0.90
2018-08-12T13:10:16.615Z,0.93
2018-08-12T13:12:45.583Z,0.78
2018-08-12T13:15:15.271Z,0.88
2018-08-12T13:17:44.188Z,1.25
2018-08-12T13:20:15.485Z,0.93
2018-08-12T13:22:45.497Z,1.10
2018-08-12T13:25:16.141Z,1.27
2018-08-12T13:27:45.405Z,1.00
2018-08-12T13:30:15.345Z,1.37
2018-08-12T13:32:45.377Z,0.98
2018-08-12T13:35:14.655Z,1.15
2018-08-12T13:37:43.899Z,1.02
2018-08-12T13:40:14.364Z,0.80
2018-08-12T13:42:44.938Z,1.35
2018-08-12T13:45:20.485Z,0.90
2018-08-12T13:47:51.649Z,1.20
2018-08-12T13:50:22.291Z,0.68
2018-08-12T13:52:52.079Z,0.98
2018-08-12T13:55:21.847Z,1.15
2018-08-12T13:57:52.653Z,1.00
2018-08-12T14:00:24.397Z,0.90
2018-08-12T14:02:53.591Z,0.88
2018-08-12T14:05:23.051Z,0.78
2018-08-12T14:07:52.813Z,1.12
2018-08-12T14:10:29.067Z,0.70
2018-08-12T14:12:59.533Z,0.90
2018-08-12T14:15:28.533Z,0.95
2018-08-12T14:17:57.501Z,0.78
2018-08-12T14:20:26.417Z,0.90
2018-08-12T14:22:58.776Z,0.80
2018-08-12T14:25:27.733Z,0.80
2018-08-12T14:27:56.703Z,0.82
2018-08-12T14:30:25.537Z,0.82
2018-08-12T14:33:01.122Z,1.15
2018-08-12T14:35:30.161Z,0.80
2018-08-12T14:37:59.074Z,1.20
2018-08-12T14:40:28.032Z,1.15
2018-08-12T14:42:56.995Z,1.05
2018-08-12T14:45:26.093Z,1.00
2018-08-12T14:47:55.224Z,1.00
2018-08-12T14:50:29.397Z,1.10
2018-08-12T14:52:58.561Z,0.78
2018-08-12T14:55:27.794Z,1.10
2018-08-12T14:57:56.909Z,0.90
2018-08-12T15:00:26.272Z,0.90
2018-08-12T15:02:55.600Z,1.00
2018-08-12T15:05:24.704Z,1.10
2018-08-12T15:07:53.970Z,1.40
2018-08-12T15:10:22.979Z,0.95
2018-08-12T15:12:51.922Z,1.10
2018-08-12T15:15:21.535Z,0.98
2018-08-12T15:17:50.865Z,0.80
2018-08-12T15:20:20.100Z,0.85
2018-08-12T15:22:49.272Z,0.88
2018-08-12T15:25:25.812Z,0.78
2018-08-12T15:28:01.918Z,1.20
2018-08-12T15:30:30.804Z,0.88
2018-08-12T15:32:59.786Z,1.20
2018-08-12T15:35:28.733Z,1.10
2018-08-12T15:37:57.593Z,0.90
2018-08-12T15:40:26.785Z,1.37
2018-08-12T15:42:55.767Z,0.85
2018-08-12T15:45:24.807Z,1.10
2018-08-12T15:47:53.793Z,1.07
2018-08-12T15:50:22.687Z,0.95
2018-08-12T15:52:53.606Z,0.65
2018-08-12T15:55:22.588Z,0.80
2018-08-12T15:57:51.586Z,0.98
2018-08-12T16:00:21.761Z,1.00
2018-08-12T16:02:50.756Z,0.72
2018-08-12T16:05:19.754Z,0.90
2018-08-12T16:07:51.575Z,0.65
2018-08-12T16:10:22.342Z,0.90
2018-08-12T16:12:54.534Z,0.78
2018-08-12T16:15:23.920Z,1.02
2018-08-12T16:17:53.658Z,0.80
2018-08-12T16:20:22.994Z,0.93
2018-08-12T16:22:52.267Z,0.88
2018-08-12T16:25:22.387Z,0.90
2018-08-12T16:27:51.721Z,1.15
2018-08-12T16:30:20.999Z,1.07
2018-08-12T16:32:50.186Z,0.80
2018-08-12T16:35:21.472Z,0.90
2018-08-12T16:37:50.632Z,0.70
2018-08-12T16:40:20.772Z,0.90
2018-08-12T16:42:50.048Z,1.45
2018-08-12T16:45:20.205Z,1.37
2018-08-12T16:47:49.226Z,1.52
2018-08-12T16:50:18.265Z,1.00
2018-08-12T16:52:47.191Z,1.00
2018-08-12T16:55:17.304Z,0.70
2018-08-12T16:57:46.831Z,0.90
2018-08-12T17:00:20.467Z,0.80
2018-08-12T17:02:51.386Z,1.40
2018-08-12T17:05:21.562Z,0.95
2018-08-12T17:07:51.067Z,1.07
2018-08-12T17:10:20.983Z,0.90
2018-08-12T17:12:49.851Z,0.80
2018-08-12T17:15:21.013Z,0.93
2018-08-12T17:17:50.474Z,1.05
2018-08-12T17:20:26.171Z,1.00
2018-08-12T17:22:56.733Z,0.85
2018-08-12T17:25:25.693Z,0.90
2018-08-12T17:27:54.622Z,0.80
2018-08-12T17:30:23.541Z,1.20
2018-08-12T17:32:52.606Z,0.62
2018-08-12T17:35:21.552Z,1.10
2018-08-12T17:37:50.477Z,1.02
2018-08-12T17:40:19.350Z,0.98
2018-08-12T17:42:48.230Z,1.12
2018-08-12T17:45:17.193Z,2.00
2018-08-12T17:47:46.427Z,1.00
2018-08-12T17:50:16.767Z,0.80
2018-08-12T17:52:45.748Z,1.30
2018-08-12T17:55:14.630Z,1.40
2018-08-12T17:57:44.451Z,1.27
2018-08-12T18:00:14.973Z,1.30
2018-08-12T18:02:43.944Z,1.57
2018-08-12T18:05:12.830Z,1.10
2018-08-12T18:07:42.250Z,0.88
2018-08-12T18:10:11.164Z,1.45
2018-08-12T18:12:40.159Z,1.32
2018-08-12T18:15:10.801Z,1.10
2018-08-12T18:17:40.147Z,1.10
2018-08-12T18:20:09.350Z,0.85
2018-08-12T18:22:38.417Z,0.70
2018-08-12T18:25:09.119Z,1.05
2018-08-12T18:27:38.144Z,1.30
2018-08-12T18:30:08.881Z,1.20
2018-08-12T18:32:37.969Z,0.90
2018-08-12T18:35:08.253Z,0.85
2018-08-12T18:37:37.305Z,0.95
2018-08-12T18:40:07.594Z,1.20
2018-08-12T18:42:36.770Z,1.05
2018-08-12T18:45:06.000Z,0.95
2018-08-12T18:47:35.298Z,0.90
2018-08-12T18:50:05.376Z,1.10
2018-08-12T18:52:34.630Z,1.17
2018-08-12T18:55:03.622Z,1.40
2018-08-12T18:57:32.500Z,1.15
2018-08-12T19:00:01.432Z,1.20
2018-08-12T19:02:30.469Z,0.98
2018-08-12T19:04:59.342Z,1.12
2018-08-12T19:07:29.159Z,0.90
2018-08-12T19:09:58.223Z,1.02
2018-08-12T19:12:27.275Z,1.00
2018-08-12T19:14:58.205Z,1.10
2018-08-12T19:17:27.541Z,1.00
2018-08-12T19:19:57.072Z,1.27
2018-08-12T19:22:28.240Z,1.05
2018-08-12T19:25:00.700Z,1.05
2018-08-12T19:27:31.981Z,1.10
2018-08-12T19:30:01.028Z,1.00
2018-08-12T19:32:30.065Z,1.30
2018-08-12T19:34:59.475Z,1.12
2018-08-12T19:37:28.409Z,1.05
2018-08-12T19:39:57.318Z,0.93
2018-08-12T19:42:26.269Z,1.00
2018-08-12T19:44:55.171Z,1.17
2018-08-12T19:47:24.826Z,0.98
2018-08-12T19:49:53.777Z,1.10
2018-08-12T19:52:22.754Z,1.10
2018-08-12T19:54:51.711Z,1.30
2018-08-12T19:57:20.639Z,1.57
2018-08-12T19:59:49.586Z,1.37
2018-08-12T20:02:18.654Z,1.55
2018-08-12T20:04:47.622Z,1.22
2018-08-12T20:07:16.505Z,1.20
2018-08-12T20:09:45.424Z,1.12
2018-08-12T20:12:14.749Z,1.40
2018-08-12T20:14:43.448Z,1.47
2018-08-12T20:17:12.421Z,1.40
2018-08-12T20:19:41.438Z,1.17
2018-08-12T20:22:13.921Z,1.32
2018-08-12T20:24:43.237Z,1.25
2018-08-12T20:27:12.727Z,1.20
2018-08-12T20:29:41.762Z,1.05
2018-08-12T20:32:10.915Z,1.12
2018-08-12T20:34:40.018Z,1.05
2018-08-12T20:37:09.792Z,1.10
2018-08-12T20:39:38.745Z,1.30
2018-08-12T20:42:08.356Z,1.20
2018-08-12T20:44:39.263Z,1.30
2018-08-12T20:47:08.283Z,1.20
2018-08-12T20:49:38.180Z,1.20
2018-08-12T20:52:07.032Z,1.22
2018-08-12T20:54:52.598Z,1.25
2018-08-12T20:57:29.444Z,1.22
2018-08-12T21:00:00.762Z,1.12
2018-08-12T21:02:29.648Z,1.20
2018-08-12T21:04:58.718Z,1.10
2018-08-12T21:07:28.633Z,1.30
2018-08-12T21:09:59.948Z,1.30
2018-08-12T21:12:30.293Z,1.40
2018-08-12T21:14:59.302Z,1.40
2018-08-12T21:17:28.250Z,1.32
2018-08-12T21:19:57.277Z,1.17
2018-08-12T21:22:26.170Z,1.20
2018-08-12T21:24:55.158Z,1.25
2018-08-12T21:27:24.161Z,1.50
2018-08-12T21:29:53.090Z,1.47
2018-08-12T21:32:22.060Z,1.22
2018-08-12T21:34:51.073Z,1.30
2018-08-12T21:37:20.377Z,1.50
2018-08-12T21:39:49.544Z,1.20
2018-08-12T21:42:18.473Z,1.22
2018-08-12T21:44:47.396Z,1.35
2018-08-12T21:47:16.487Z,1.42
2018-08-12T21:49:45.690Z,1.25
2018-08-12T21:52:14.834Z,1.30
2018-08-12T21:54:43.814Z,1.40
2018-08-12T21:57:12.820Z,1.55
2018-08-12T21:59:41.983Z,1.40
2018-08-12T22:02:10.880Z,1.60
2018-08-12T22:04:40.091Z,1.30
2018-08-12T22:07:09.048Z,1.00
2018-08-12T22:09:38.234Z,1.30
2018-08-12T22:12:07.156Z,1.62
2018-08-12T22:14:36.046Z,1.27
2018-08-12T22:17:04.899Z,1.40
2018-08-12T22:19:33.865Z,1.52
2018-08-12T22:22:02.725Z,1.60
2018-08-12T22:24:33.426Z,1.40
2018-08-12T22:27:02.696Z,1.60
2018-08-12T22:29:33.591Z,1.10
2018-08-12T22:32:02.500Z,1.32
2018-08-12T22:34:34.271Z,1.67
2018-08-12T22:37:03.150Z,1.27
2018-08-12T22:39:32.020Z,1.37
2018-08-12T22:42:01.139Z,1.65
2018-08-12T22:44:30.108Z,1.50
2018-08-12T22:46:59.616Z,1.50
2018-08-12T22:49:28.609Z,1.52
2018-08-12T22:51:57.656Z,1.32
2018-08-12T22:54:26.519Z,1.40
2018-08-12T22:56:55.471Z,1.40
2018-08-12T22:59:24.392Z,1.77
2018-08-12T23:01:53.301Z,1.30
2018-08-12T23:04:22.325Z,1.72
2018-08-12T23:06:51.316Z,1.35
2018-08-12T23:09:20.266Z,1.37
2018-08-12T23:11:49.180Z,1.35
2018-08-12T23:14:18.173Z,1.40
2018-08-12T23:16:56.807Z,1.30
2018-08-12T23:19:25.714Z,1.30
2018-08-12T23:21:54.651Z,1.57
2018-08-12T23:24:23.556Z,1.60
2018-08-12T23:26:52.468Z,1.70
2018-08-12T23:29:21.300Z,1.30
2018-08-12T23:31:50.286Z,1.60
2018-08-12T23:34:19.176Z,1.40
2018-08-12T23:36:48.027Z,1.60
2018-08-12T23:39:17.018Z,1.32
2018-08-12T23:41:46.003Z,1.80
2018-08-12T23:44:14.857Z,1.50
2018-08-12T23:46:43.860Z,1.90
2018-08-12T23:49:12.681Z,1.60
2018-08-12T23:51:41.637Z,1.80
2018-08-12T23:54:10.625Z,1.67
2018-08-12T23:56:39.517Z,1.80
2018-08-12T23:59:08.330Z,1.50
